RailEnquiry

Loading..

15159 Sarnath Express Live Running Status - 1 Hr 20 Mins Late
Start Date - 29 Aug 2015 Currently Running (Departed: Madaraha)

Refresh Status
# Station Day Sch Arr Exp/Act Arr Arr Delay Sch Dep Exp/Act Dep Delay Dep Distance PF
1 Chhapra Jn 1 Source Source No Delay 07:20 AM 07:20 AM No Delay 0 Kms -
2 Suraimanpur 1 07:45 AM 08:13 AM 28 Mins 07:47 AM 08:15 AM 28 Mins 28 Kms -
3 Sahatwar 1 08:06 AM 08:38 AM 32 Mins 08:08 AM 08:40 AM 32 Mins 47 Kms -
4 Ballia 1 08:31 AM 09:00 AM 29 Mins 08:35 AM 09:10 AM 35 Mins 65 Kms -
5 Phephna Jn 1 08:50 AM 09:26 AM 36 Mins 08:52 AM 09:28 AM 36 Mins 75 Kms -
6 Chit Baragaon 1 08:59 AM 09:36 AM 37 Mins 09:01 AM 09:38 AM 37 Mins 81 Kms -
7 Karimuddin Pur 1 09:19 AM 09:56 AM 37 Mins 09:21 AM 09:58 AM 37 Mins 96 Kms -
8 Yusufpur 1 09:36 AM 10:15 AM 39 Mins 09:38 AM 10:17 AM 39 Mins 110 Kms -
9 Ghazipur City 1 10:01 AM 10:40 AM 39 Mins 10:06 AM 10:45 AM 39 Mins 130 Kms -
10 NandGanj 1 10:22 AM 11:05 AM 43 Mins 10:24 AM 11:07 AM 43 Mins 148 Kms -
11 Aunrihar Jn 1 10:55 AM 11:30 AM 35 Mins 10:57 AM 11:32 AM 35 Mins 170 Kms -
12 Sarnath 1 11:33 AM 11:51 AM 18 Mins 11:35 AM 11:51 AM 16 Mins 195 Kms -
13 Varanasi City 1 11:45 AM 11:58 AM 13 Mins 11:47 AM 12:22 PM 35 Mins 201 Kms -
14 Varanasi Jn 1 12:15 PM 12:45 PM 30 Mins 12:25 PM 12:55 PM 30 Mins 205 Kms -
15 Bhadohi 1 01:01 PM 01:45 PM 44 Mins 01:03 PM 01:47 PM 44 Mins 250 Kms -
16 Janghai Jn 1 01:34 PM 02:22 PM 48 Mins 01:36 PM 02:27 PM 51 Mins 280 Kms -
17 Phulpur 1 02:02 PM 02:46 PM 44 Mins 02:04 PM 02:48 PM 44 Mins 303 Kms -
18 Allahabad Jn 1 03:15 PM 04:05 PM 50 Mins 03:40 PM 04:40 PM 1 Hr 340 Kms 9
19 Naini Jn 1 03:58 PM 05:05 PM 1 Hr 7 Mins 04:00 PM 05:20 PM 1 Hr 20 Mins 347 Kms -
20 Madaraha 1 04:16 PM 05:42 PM 1 Hr 26 Mins 04:16 PM 05:42 PM 1 Hr 26 Mins 374 Kms -
21 Shankargarh 1 04:26 PM 05:52 PM 1 Hr 26 Mins 04:28 PM 05:53 PM 1 Hr 25 Mins 390 Kms -
22 Dabhaura 1 04:53 PM 06:18 PM 1 Hr 25 Mins 04:55 PM 06:20 PM 1 Hr 25 Mins 423 Kms -
23 Manikpur Jn 1 05:40 PM 06:41 PM 1 Hr 1 Min 05:45 PM 06:46 PM 1 Hr 1 Min 445 Kms -
24 Majhagawan 1 06:12 PM 07:13 PM 1 Hr 1 Min 06:14 PM 07:15 PM 1 Hr 1 Min 482 Kms -
25 Jaitwar 1 06:32 PM 07:33 PM 1 Hr 1 Min 06:34 PM 07:35 PM 1 Hr 1 Min 503 Kms -
26 Satna Jn 1 07:00 PM 07:55 PM 55 Mins 07:10 PM 08:05 PM 55 Mins 523 Kms -
27 Unchhera 1 07:24 PM 08:19 PM 55 Mins 07:26 PM 08:21 PM 55 Mins 544 Kms -
28 Maihar 1 07:38 PM 08:33 PM 55 Mins 07:40 PM 08:35 PM 55 Mins 558 Kms -
29 Katni Jn 1 08:50 PM 09:19 PM 29 Mins 09:05 PM 09:34 PM 29 Mins 621 Kms 4
30 Chandia Road 1 09:54 PM 10:20 PM 26 Mins 09:56 PM 10:22 PM 26 Mins 662 Kms -
31 Umaria 1 10:14 PM 10:40 PM 26 Mins 10:16 PM 10:42 PM 26 Mins 681 Kms -
32 Birsinghpur 1 10:38 PM 11:04 PM 26 Mins 10:40 PM 11:06 PM 26 Mins 711 Kms -
33 Shahdol 1 11:28 PM 11:44 PM 16 Mins 11:33 PM 11:49 PM 16 Mins 748 Kms 1
34 Burhar 2 11:49 PM 12:05 AM 16 Mins 11:51 PM 12:07 AM 16 Mins 768 Kms -
35 Amlai 2 12:03 AM 12:16 AM 13 Mins 12:05 AM 12:18 AM 13 Mins 776 Kms -
36 Anuppur Jn 2 12:20 AM 12:33 AM 13 Mins 12:25 AM 12:38 AM 13 Mins 789 Kms 1
37 Pendra Road 2 01:15 AM 01:25 AM 10 Mins 01:17 AM 01:27 AM 10 Mins 839 Kms -
38 Belgahna 2 02:12 AM 02:22 AM 10 Mins 02:14 AM 02:24 AM 10 Mins 892 Kms -
39 Kargi Road 2 02:40 AM 02:46 AM 6 Mins 02:42 AM 02:48 AM 6 Mins 908 Kms -
40 Uslapur 2 03:26 AM 03:26 AM No Delay 03:28 AM 03:28 AM No Delay 932 Kms -
41 Bilaspur Jn 2 04:05 AM 04:05 AM No Delay 04:25 AM 04:25 AM No Delay 940 Kms 1
42 Belha 2 04:44 AM 04:44 AM No Delay 04:45 AM 04:45 AM No Delay 956 Kms -
43 Bhatapara 2 05:08 AM 05:08 AM No Delay 05:10 AM 05:10 AM No Delay 988 Kms -
44 Tilda 2 05:28 AM 05:28 AM No Delay 05:30 AM 05:30 AM No Delay 1014 Kms -
45 Raipur Jn 2 06:10 AM 06:10 AM No Delay 06:20 AM 06:20 AM No Delay 1058 Kms -
46 Bhilai Power House 2 06:48 AM 06:48 AM No Delay 06:50 AM 06:50 AM No Delay 1091 Kms -
47 Durg Jn 2 07:30 AM 07:30 AM No Delay Destination Destination No Delay 1100 Kms -
Journey Done: 10 hrs 22 minLast Updated: 29 Aug, 2015 @ 05:49 PM
No Options are Available